Terminal Aerodrome Forecast
Issued by NWS Binghamton, NY

Home | Current Version | Previous Version | Text Only | Print | Product List | Glossary On
Versions: 1 2 3 4 5 6 7 8 9 10 11 12 13 14 15 16 17 18
000
FTUS41 KBGM 052320
TAFAVP
TAF
KAVP 052320Z 0600/0624 VRB02KT P6SM BKN250
     FM060900 VRB03KT P6SM BKN120
     FM061500 21004KT P6SM BKN040 OVC100
     FM061800 22007KT P6SM -SHRA OVC040=

USA.gov is the U.S. government's official web portal to all federal, state and local government web resources and services.